sensor_id;sensor_type;location;lat;lon;timestamp;P1;durP1;ratioP1;P2;durP2;ratioP2
17844;SDS011;9047;53.486;10.218;2023-10-31T00:01:48;15.98;;;7.15;;
17844;SDS011;9047;53.486;10.218;2023-10-31T00:04:18;11.05;;;6.40;;
17844;SDS011;9047;53.486;10.218;2023-10-31T00:06:45;16.42;;;7.10;;
17844;SDS011;9047;53.486;10.218;2023-10-31T00:09:13;10.52;;;6.55;;
17844;SDS011;9047;53.486;10.218;2023-10-31T00:11:43;9.55;;;6.03;;
17844;SDS011;9047;53.486;10.218;2023-10-31T00:14:11;11.52;;;6.10;;
17844;SDS011;9047;53.486;10.218;2023-10-31T00:16:40;10.80;;;6.28;;
17844;SDS011;9047;53.486;10.218;2023-10-31T00:19:07;12.30;;;6.30;;
17844;SDS011;9047;53.486;10.218;2023-10-31T00:21:35;13.82;;;6.05;;
17844;SDS011;9047;53.486;10.218;2023-10-31T00:24:12;8.88;;;5.55;;
17844;SDS011;9047;53.486;10.218;2023-10-31T00:26:48;11.50;;;6.05;;
17844;SDS011;9047;53.486;10.218;2023-10-31T00:29:29;10.70;;;5.95;;
17844;SDS011;9047;53.486;10.218;2023-10-31T00:31:56;10.10;;;5.85;;
17844;SDS011;9047;53.486;10.218;2023-10-31T00:34:27;11.05;;;5.63;;
17844;SDS011;9047;53.486;10.218;2023-10-31T00:36:55;13.07;;;5.65;;
17844;SDS011;9047;53.486;10.218;2023-10-31T00:39:22;10.73;;;5.40;;
17844;SDS011;9047;53.486;10.218;2023-10-31T00:41:52;11.07;;;5.88;;
17844;SDS011;9047;53.486;10.218;2023-10-31T00:44:22;12.63;;;5.70;;
17844;SDS011;9047;53.486;10.218;2023-10-31T00:46:49;14.05;;;6.63;;
17844;SDS011;9047;53.486;10.218;2023-10-31T00:49:17;11.82;;;5.22;;
17844;SDS011;9047;53.486;10.218;2023-10-31T00:51:47;10.82;;;5.78;;
17844;SDS011;9047;53.486;10.218;2023-10-31T00:54:14;8.80;;;5.57;;
17844;SDS011;9047;53.486;10.218;2023-10-31T00:56:42;10.48;;;5.65;;
17844;SDS011;9047;53.486;10.218;2023-10-31T00:59:12;12.20;;;5.43;;
17844;SDS011;9047;53.486;10.218;2023-10-31T01:01:44;12.30;;;6.05;;
17844;SDS011;9047;53.486;10.218;2023-10-31T01:04:14;9.55;;;5.55;;
17844;SDS011;9047;53.486;10.218;2023-10-31T01:06:49;11.57;;;5.90;;
17844;SDS011;9047;53.486;10.218;2023-10-31T01:09:16;13.90;;;5.78;;
17844;SDS011;9047;53.486;10.218;2023-10-31T01:11:47;11.30;;;6.13;;
17844;SDS011;9047;53.486;10.218;2023-10-31T01:14:17;11.60;;;5.43;;
17844;SDS011;9047;53.486;10.218;2023-10-31T01:16:44;14.50;;;6.30;;
17844;SDS011;9047;53.486;10.218;2023-10-31T01:19:11;10.88;;;6.15;;
17844;SDS011;9047;53.486;10.218;2023-10-31T01:21:40;11.48;;;5.80;;
17844;SDS011;9047;53.486;10.218;2023-10-31T01:24:07;14.93;;;6.18;;
17844;SDS011;9047;53.486;10.218;2023-10-31T01:26:35;15.48;;;6.28;;
17844;SDS011;9047;53.486;10.218;2023-10-31T01:29:07;12.80;;;7.00;;
17844;SDS011;9047;53.486;10.218;2023-10-31T01:31:37;10.32;;;5.93;;
17844;SDS011;9047;53.486;10.218;2023-10-31T01:34:19;14.27;;;6.75;;
17844;SDS011;9047;53.486;10.218;2023-10-31T01:37:02;15.02;;;7.10;;
17844;SDS011;9047;53.486;10.218;2023-10-31T01:39:31;11.75;;;6.38;;
17844;SDS011;9047;53.486;10.218;2023-10-31T01:42:04;11.20;;;6.65;;
17844;SDS011;9047;53.486;10.218;2023-10-31T01:44:38;12.75;;;7.22;;
17844;SDS011;9047;53.486;10.218;2023-10-31T01:47:07;11.90;;;7.07;;
17844;SDS011;9047;53.486;10.218;2023-10-31T01:49:40;17.90;;;8.15;;
17844;SDS011;9047;53.486;10.218;2023-10-31T01:52:09;11.93;;;7.25;;
17844;SDS011;9047;53.486;10.218;2023-10-31T01:54:36;17.88;;;8.30;;
17844;SDS011;9047;53.486;10.218;2023-10-31T01:57:05;16.83;;;8.23;;
17844;SDS011;9047;53.486;10.218;2023-10-31T01:59:37;11.60;;;7.15;;
17844;SDS011;9047;53.486;10.218;2023-10-31T02:02:08;15.48;;;8.00;;
17844;SDS011;9047;53.486;10.218;2023-10-31T02:04:35;14.18;;;7.78;;
17844;SDS011;9047;53.486;10.218;2023-10-31T02:07:07;14.23;;;8.25;;
17844;SDS011;9047;53.486;10.218;2023-10-31T02:09:35;13.98;;;8.10;;
17844;SDS011;9047;53.486;10.218;2023-10-31T02:12:10;17.35;;;8.07;;
17844;SDS011;9047;53.486;10.218;2023-10-31T02:14:37;14.55;;;7.85;;
17844;SDS011;9047;53.486;10.218;2023-10-31T02:17:04;13.20;;;7.38;;
17844;SDS011;9047;53.486;10.218;2023-10-31T02:19:33;16.48;;;8.52;;
17844;SDS011;9047;53.486;10.218;2023-10-31T02:22:06;17.70;;;8.70;;
17844;SDS011;9047;53.486;10.218;2023-10-31T02:24:33;16.23;;;8.30;;
17844;SDS011;9047;53.486;10.218;2023-10-31T02:27:01;13.93;;;7.95;;
17844;SDS011;9047;53.486;10.218;2023-10-31T02:29:31;11.07;;;7.45;;
17844;SDS011;9047;53.486;10.218;2023-10-31T02:31:58;15.57;;;7.70;;
17844;SDS011;9047;53.486;10.218;2023-10-31T02:34:28;16.15;;;8.07;;
17844;SDS011;9047;53.486;10.218;2023-10-31T02:36:59;14.23;;;8.05;;
17844;SDS011;9047;53.486;10.218;2023-10-31T02:39:32;17.48;;;8.52;;
17844;SDS011;9047;53.486;10.218;2023-10-31T02:41:59;14.55;;;7.70;;
17844;SDS011;9047;53.486;10.218;2023-10-31T02:44:27;14.50;;;8.18;;
17844;SDS011;9047;53.486;10.218;2023-10-31T02:46:54;14.07;;;8.52;;
17844;SDS011;9047;53.486;10.218;2023-10-31T02:49:23;16.88;;;8.50;;
17844;SDS011;9047;53.486;10.218;2023-10-31T02:51:50;15.32;;;8.65;;
17844;SDS011;9047;53.486;10.218;2023-10-31T02:54:18;14.60;;;8.73;;
17844;SDS011;9047;53.486;10.218;2023-10-31T02:56:48;15.38;;;9.50;;
17844;SDS011;9047;53.486;10.218;2023-10-31T02:59:17;14.70;;;9.57;;
17844;SDS011;9047;53.486;10.218;2023-10-31T03:01:44;13.93;;;9.07;;
17844;SDS011;9047;53.486;10.218;2023-10-31T03:04:13;16.60;;;8.50;;
17844;SDS011;9047;53.486;10.218;2023-10-31T03:06:50;15.95;;;9.80;;
17844;SDS011;9047;53.486;10.218;2023-10-31T03:09:20;15.80;;;9.80;;
17844;SDS011;9047;53.486;10.218;2023-10-31T03:11:51;17.45;;;9.38;;
17844;SDS011;9047;53.486;10.218;2023-10-31T03:14:19;15.23;;;9.18;;
17844;SDS011;9047;53.486;10.218;2023-10-31T03:16:46;15.50;;;9.95;;
17844;SDS011;9047;53.486;10.218;2023-10-31T03:19:13;21.48;;;9.90;;
17844;SDS011;9047;53.486;10.218;2023-10-31T03:21:41;20.35;;;11.25;;
17844;SDS011;9047;53.486;10.218;2023-10-31T03:24:10;18.30;;;10.32;;
17844;SDS011;9047;53.486;10.218;2023-10-31T03:26:39;20.48;;;10.70;;
17844;SDS011;9047;53.486;10.218;2023-10-31T03:29:21;17.38;;;10.43;;
17844;SDS011;9047;53.486;10.218;2023-10-31T03:31:48;20.70;;;11.43;;
17844;SDS011;9047;53.486;10.218;2023-10-31T03:34:15;20.85;;;11.15;;
17844;SDS011;9047;53.486;10.218;2023-10-31T03:36:46;15.23;;;10.68;;
17844;SDS011;9047;53.486;10.218;2023-10-31T03:39:14;16.33;;;10.45;;
17844;SDS011;9047;53.486;10.218;2023-10-31T03:41:42;19.70;;;11.15;;
17844;SDS011;9047;53.486;10.218;2023-10-31T03:44:13;19.45;;;11.57;;
17844;SDS011;9047;53.486;10.218;2023-10-31T03:46:41;21.73;;;11.48;;
17844;SDS011;9047;53.486;10.218;2023-10-31T03:49:08;21.48;;;11.73;;
17844;SDS011;9047;53.486;10.218;2023-10-31T03:51:36;26.52;;;12.98;;
17844;SDS011;9047;53.486;10.218;2023-10-31T03:54:03;21.65;;;12.55;;
17844;SDS011;9047;53.486;10.218;2023-10-31T03:56:38;21.73;;;12.35;;
17844;SDS011;9047;53.486;10.218;2023-10-31T04:02:34;26.75;;;13.82;;
17844;SDS011;9047;53.486;10.218;2023-10-31T04:05:02;29.55;;;14.85;;
17844;SDS011;9047;53.486;10.218;2023-10-31T04:07:30;26.98;;;12.68;;
17844;SDS011;9047;53.486;10.218;2023-10-31T04:09:57;29.40;;;14.43;;
17844;SDS011;9047;53.486;10.218;2023-10-31T04:12:25;26.90;;;13.90;;
17844;SDS011;9047;53.486;10.218;2023-10-31T04:14:54;26.35;;;13.32;;
17844;SDS011;9047;53.486;10.218;2023-10-31T04:17:22;21.40;;;12.68;;
17844;SDS011;9047;53.486;10.218;2023-10-31T04:19:53;17.50;;;11.80;;
17844;SDS011;9047;53.486;10.218;2023-10-31T04:22:21;24.08;;;12.88;;
17844;SDS011;9047;53.486;10.218;2023-10-31T04:24:48;24.27;;;13.07;;
17844;SDS011;9047;53.486;10.218;2023-10-31T04:27:15;27.25;;;13.85;;
17844;SDS011;9047;53.486;10.218;2023-10-31T04:29:43;28.08;;;14.00;;
17844;SDS011;9047;53.486;10.218;2023-10-31T04:32:11;22.50;;;13.20;;
17844;SDS011;9047;53.486;10.218;2023-10-31T04:34:38;25.80;;;14.57;;
17844;SDS011;9047;53.486;10.218;2023-10-31T04:37:07;25.80;;;14.00;;
17844;SDS011;9047;53.486;10.218;2023-10-31T04:39:34;22.98;;;12.77;;
17844;SDS011;9047;53.486;10.218;2023-10-31T04:42:02;29.55;;;13.68;;
17844;SDS011;9047;53.486;10.218;2023-10-31T04:44:31;20.80;;;13.05;;
17844;SDS011;9047;53.486;10.218;2023-10-31T04:46:58;23.52;;;13.40;;
17844;SDS011;9047;53.486;10.218;2023-10-31T04:49:26;23.02;;;12.40;;
17844;SDS011;9047;53.486;10.218;2023-10-31T04:51:55;23.27;;;12.48;;
17844;SDS011;9047;53.486;10.218;2023-10-31T04:54:25;25.60;;;14.52;;
17844;SDS011;9047;53.486;10.218;2023-10-31T04:56:52;26.90;;;14.23;;
17844;SDS011;9047;53.486;10.218;2023-10-31T04:59:21;21.65;;;12.65;;
17844;SDS011;9047;53.486;10.218;2023-10-31T05:01:48;28.35;;;13.98;;
17844;SDS011;9047;53.486;10.218;2023-10-31T05:04:21;23.35;;;12.90;;
17844;SDS011;9047;53.486;10.218;2023-10-31T05:06:48;23.48;;;12.52;;
17844;SDS011;9047;53.486;10.218;2023-10-31T05:09:16;27.88;;;14.32;;
17844;SDS011;9047;53.486;10.218;2023-10-31T05:11:47;28.77;;;14.70;;
17844;SDS011;9047;53.486;10.218;2023-10-31T05:14:15;31.48;;;15.15;;
17844;SDS011;9047;53.486;10.218;2023-10-31T05:16:42;30.90;;;14.23;;
17844;SDS011;9047;53.486;10.218;2023-10-31T05:19:13;24.35;;;14.73;;
17844;SDS011;9047;53.486;10.218;2023-10-31T05:21:41;30.60;;;16.02;;
17844;SDS011;9047;53.486;10.218;2023-10-31T05:24:09;29.55;;;15.10;;
17844;SDS011;9047;53.486;10.218;2023-10-31T05:26:36;33.97;;;15.57;;
17844;SDS011;9047;53.486;10.218;2023-10-31T05:29:13;34.63;;;15.98;;
17844;SDS011;9047;53.486;10.218;2023-10-31T05:31:41;35.47;;;16.33;;
17844;SDS011;9047;53.486;10.218;2023-10-31T05:34:15;24.42;;;13.52;;
17844;SDS011;9047;53.486;10.218;2023-10-31T05:36:42;38.33;;;16.35;;
17844;SDS011;9047;53.486;10.218;2023-10-31T05:39:10;31.83;;;16.00;;
17844;SDS011;9047;53.486;10.218;2023-10-31T05:41:38;29.25;;;15.60;;
17844;SDS011;9047;53.486;10.218;2023-10-31T05:44:05;29.20;;;15.73;;
17844;SDS011;9047;53.486;10.218;2023-10-31T05:46:39;35.20;;;16.67;;
17844;SDS011;9047;53.486;10.218;2023-10-31T05:49:08;40.78;;;17.48;;
17844;SDS011;9047;53.486;10.218;2023-10-31T05:51:35;32.53;;;16.40;;
17844;SDS011;9047;53.486;10.218;2023-10-31T05:54:03;43.00;;;17.25;;
17844;SDS011;9047;53.486;10.218;2023-10-31T05:56:34;24.70;;;15.15;;
17844;SDS011;9047;53.486;10.218;2023-10-31T05:59:02;42.65;;;17.92;;
17844;SDS011;9047;53.486;10.218;2023-10-31T06:01:30;44.20;;;18.08;;
17844;SDS011;9047;53.486;10.218;2023-10-31T06:03:58;28.50;;;15.55;;
17844;SDS011;9047;53.486;10.218;2023-10-31T06:06:29;31.90;;;16.92;;
17844;SDS011;9047;53.486;10.218;2023-10-31T06:08:58;45.30;;;18.45;;
17844;SDS011;9047;53.486;10.218;2023-10-31T06:11:26;43.30;;;16.67;;
17844;SDS011;9047;53.486;10.218;2023-10-31T06:13:53;44.47;;;17.13;;
17844;SDS011;9047;53.486;10.218;2023-10-31T06:16:21;32.35;;;16.08;;
17844;SDS011;9047;53.486;10.218;2023-10-31T06:18:48;34.42;;;17.45;;
17844;SDS011;9047;53.486;10.218;2023-10-31T06:21:33;41.67;;;17.75;;
17844;SDS011;9047;53.486;10.218;2023-10-31T06:24:00;45.35;;;17.42;;
17844;SDS011;9047;53.486;10.218;2023-10-31T06:26:27;40.22;;;17.92;;
17844;SDS011;9047;53.486;10.218;2023-10-31T06:29:03;41.30;;;17.67;;
17844;SDS011;9047;53.486;10.218;2023-10-31T06:31:30;44.30;;;17.92;;
17844;SDS011;9047;53.486;10.218;2023-10-31T06:34:02;34.00;;;15.43;;
17844;SDS011;9047;53.486;10.218;2023-10-31T06:36:29;44.55;;;17.55;;
17844;SDS011;9047;53.486;10.218;2023-10-31T06:38:59;34.60;;;17.15;;
17844;SDS011;9047;53.486;10.218;2023-10-31T06:41:29;24.33;;;15.18;;
17844;SDS011;9047;53.486;10.218;2023-10-31T06:43:59;33.40;;;16.40;;
17844;SDS011;9047;53.486;10.218;2023-10-31T06:46:27;26.70;;;14.45;;
17844;SDS011;9047;53.486;10.218;2023-10-31T06:48:55;24.15;;;13.80;;
17844;SDS011;9047;53.486;10.218;2023-10-31T06:51:24;7.38;;;5.32;;
17844;SDS011;9047;53.486;10.218;2023-10-31T06:53:52;5.30;;;4.40;;
17844;SDS011;9047;53.486;10.218;2023-10-31T06:56:22;4.32;;;3.53;;
17844;SDS011;9047;53.486;10.218;2023-10-31T06:58:49;3.25;;;2.78;;
17844;SDS011;9047;53.486;10.218;2023-10-31T07:01:17;4.18;;;2.78;;
17844;SDS011;9047;53.486;10.218;2023-10-31T07:03:45;2.95;;;2.50;;
17844;SDS011;9047;53.486;10.218;2023-10-31T07:06:15;3.08;;;2.50;;
17844;SDS011;9047;53.486;10.218;2023-10-31T07:08:42;3.70;;;2.42;;
17844;SDS011;9047;53.486;10.218;2023-10-31T07:11:10;3.92;;;2.70;;
17844;SDS011;9047;53.486;10.218;2023-10-31T07:13:39;4.40;;;2.67;;
17844;SDS011;9047;53.486;10.218;2023-10-31T07:16:07;4.60;;;3.22;;
17844;SDS011;9047;53.486;10.218;2023-10-31T07:18:36;4.18;;;3.47;;
17844;SDS011;9047;53.486;10.218;2023-10-31T07:21:03;7.97;;;5.28;;
17844;SDS011;9047;53.486;10.218;2023-10-31T07:23:32;8.38;;;5.72;;
17844;SDS011;9047;53.486;10.218;2023-10-31T07:25:59;8.82;;;6.43;;
17844;SDS011;9047;53.486;10.218;2023-10-31T07:28:31;12.27;;;6.93;;
17844;SDS011;9047;53.486;10.218;2023-10-31T07:31:02;11.77;;;7.85;;
17844;SDS011;9047;53.486;10.218;2023-10-31T07:33:31;13.10;;;8.30;;
17844;SDS011;9047;53.486;10.218;2023-10-31T07:35:59;15.95;;;10.10;;
17844;SDS011;9047;53.486;10.218;2023-10-31T07:38:28;17.15;;;10.60;;
17844;SDS011;9047;53.486;10.218;2023-10-31T07:40:56;19.77;;;11.27;;
17844;SDS011;9047;53.486;10.218;2023-10-31T07:43:24;17.27;;;10.68;;
17844;SDS011;9047;53.486;10.218;2023-10-31T07:45:54;19.75;;;11.60;;
17844;SDS011;9047;53.486;10.218;2023-10-31T07:48:23;18.95;;;10.82;;
17844;SDS011;9047;53.486;10.218;2023-10-31T07:50:50;15.88;;;9.90;;
17844;SDS011;9047;53.486;10.218;2023-10-31T07:53:28;14.73;;;9.20;;
17844;SDS011;9047;53.486;10.218;2023-10-31T07:56:04;9.50;;;6.13;;
17844;SDS011;9047;53.486;10.218;2023-10-31T07:58:32;9.60;;;6.15;;
17844;SDS011;9047;53.486;10.218;2023-10-31T08:01:03;7.90;;;5.40;;
17844;SDS011;9047;53.486;10.218;2023-10-31T08:03:37;7.57;;;5.03;;
17844;SDS011;9047;53.486;10.218;2023-10-31T08:06:05;5.95;;;3.83;;
17844;SDS011;9047;53.486;10.218;2023-10-31T08:08:33;4.47;;;2.92;;
17844;SDS011;9047;53.486;10.218;2023-10-31T08:11:01;2.97;;;1.77;;
17844;SDS011;9047;53.486;10.218;2023-10-31T08:13:29;2.28;;;1.60;;
17844;SDS011;9047;53.486;10.218;2023-10-31T08:15:56;2.40;;;1.40;;
17844;SDS011;9047;53.486;10.218;2023-10-31T08:18:25;2.25;;;1.23;;
17844;SDS011;9047;53.486;10.218;2023-10-31T08:20:56;1.13;;;1.00;;
17844;SDS011;9047;53.486;10.218;2023-10-31T08:23:25;1.50;;;0.90;;
17844;SDS011;9047;53.486;10.218;2023-10-31T08:25:53;1.98;;;0.90;;
17844;SDS011;9047;53.486;10.218;2023-10-31T08:28:26;1.20;;;0.98;;
17844;SDS011;9047;53.486;10.218;2023-10-31T08:30:54;1.02;;;0.93;;
17844;SDS011;9047;53.486;10.218;2023-10-31T08:33:22;0.80;;;0.80;;
17844;SDS011;9047;53.486;10.218;2023-10-31T08:35:49;1.52;;;0.80;;
17844;SDS011;9047;53.486;10.218;2023-10-31T08:38:25;1.17;;;0.70;;
17844;SDS011;9047;53.486;10.218;2023-10-31T08:40:53;0.68;;;0.63;;
17844;SDS011;9047;53.486;10.218;2023-10-31T08:46:24;1.08;;;0.60;;
17844;SDS011;9047;53.486;10.218;2023-10-31T08:48:53;1.10;;;0.50;;
17844;SDS011;9047;53.486;10.218;2023-10-31T08:51:22;0.68;;;0.65;;
17844;SDS011;9047;53.486;10.218;2023-10-31T08:53:53;0.65;;;0.50;;
17844;SDS011;9047;53.486;10.218;2023-10-31T08:56:27;1.33;;;0.70;;
17844;SDS011;9047;53.486;10.218;2023-10-31T08:58:55;1.25;;;0.50;;
17844;SDS011;9047;53.486;10.218;2023-10-31T09:01:23;2.08;;;0.55;;
17844;SDS011;9047;53.486;10.218;2023-10-31T09:03:51;0.65;;;0.50;;
17844;SDS011;9047;53.486;10.218;2023-10-31T09:06:18;1.02;;;0.50;;
17844;SDS011;9047;53.486;10.218;2023-10-31T09:08:57;0.75;;;0.50;;
17844;SDS011;9047;53.486;10.218;2023-10-31T09:11:24;0.75;;;0.60;;
17844;SDS011;9047;53.486;10.218;2023-10-31T09:13:53;1.08;;;0.88;;
17844;SDS011;9047;53.486;10.218;2023-10-31T09:16:22;1.20;;;0.60;;
17844;SDS011;9047;53.486;10.218;2023-10-31T09:18:50;0.70;;;0.50;;
17844;SDS011;9047;53.486;10.218;2023-10-31T09:21:18;1.38;;;0.45;;
17844;SDS011;9047;53.486;10.218;2023-10-31T09:23:52;0.50;;;0.43;;
17844;SDS011;9047;53.486;10.218;2023-10-31T09:26:28;0.50;;;0.40;;
17844;SDS011;9047;53.486;10.218;2023-10-31T09:28:57;0.30;;;0.30;;
17844;SDS011;9047;53.486;10.218;2023-10-31T09:31:28;0.65;;;0.50;;
17844;SDS011;9047;53.486;10.218;2023-10-31T09:34:02;0.40;;;0.40;;
17844;SDS011;9047;53.486;10.218;2023-10-31T09:36:32;0.52;;;0.30;;
17844;SDS011;9047;53.486;10.218;2023-10-31T09:39:01;0.55;;;0.40;;
17844;SDS011;9047;53.486;10.218;2023-10-31T09:41:31;0.40;;;0.40;;
17844;SDS011;9047;53.486;10.218;2023-10-31T09:44:00;0.90;;;0.52;;
17844;SDS011;9047;53.486;10.218;2023-10-31T09:46:30;0.65;;;0.60;;
17844;SDS011;9047;53.486;10.218;2023-10-31T09:49:04;0.93;;;0.70;;
17844;SDS011;9047;53.486;10.218;2023-10-31T09:51:38;0.88;;;0.60;;
17844;SDS011;9047;53.486;10.218;2023-10-31T09:54:20;0.60;;;0.60;;
17844;SDS011;9047;53.486;10.218;2023-10-31T09:57:09;0.90;;;0.60;;
17844;SDS011;9047;53.486;10.218;2023-10-31T09:59:38;1.05;;;0.70;;
17844;SDS011;9047;53.486;10.218;2023-10-31T10:02:07;0.77;;;0.60;;
17844;SDS011;9047;53.486;10.218;2023-10-31T10:04:35;1.85;;;0.70;;
17844;SDS011;9047;53.486;10.218;2023-10-31T10:07:13;1.20;;;0.75;;
17844;SDS011;9047;53.486;10.218;2023-10-31T10:09:46;1.20;;;0.70;;
17844;SDS011;9047;53.486;10.218;2023-10-31T10:12:20;1.38;;;0.63;;
17844;SDS011;9047;53.486;10.218;2023-10-31T10:14:49;0.50;;;0.45;;
17844;SDS011;9047;53.486;10.218;2023-10-31T10:17:22;1.33;;;0.52;;
17844;SDS011;9047;53.486;10.218;2023-10-31T10:23:22;1.02;;;0.50;;
17844;SDS011;9047;53.486;10.218;2023-10-31T10:26:05;2.83;;;0.70;;
17844;SDS011;9047;53.486;10.218;2023-10-31T10:28:51;1.10;;;0.77;;
17844;SDS011;9047;53.486;10.218;2023-10-31T10:31:23;1.70;;;0.70;;
17844;SDS011;9047;53.486;10.218;2023-10-31T10:33:54;1.23;;;0.80;;
17844;SDS011;9047;53.486;10.218;2023-10-31T10:39:12;1.88;;;0.80;;
17844;SDS011;9047;53.486;10.218;2023-10-31T10:41:53;2.33;;;0.90;;
17844;SDS011;9047;53.486;10.218;2023-10-31T10:44:33;1.83;;;0.98;;
17844;SDS011;9047;53.486;10.218;2023-10-31T10:47:06;2.63;;;0.98;;
17844;SDS011;9047;53.486;10.218;2023-10-31T10:49:51;1.63;;;1.13;;
17844;SDS011;9047;53.486;10.218;2023-10-31T10:52:41;2.28;;;1.25;;
17844;SDS011;9047;53.486;10.218;2023-10-31T10:55:31;2.10;;;1.40;;
17844;SDS011;9047;53.486;10.218;2023-10-31T10:58:11;2.90;;;1.50;;
17844;SDS011;9047;53.486;10.218;2023-10-31T11:00:55;4.60;;;1.40;;
17844;SDS011;9047;53.486;10.218;2023-10-31T11:03:39;3.63;;;1.50;;
17844;SDS011;9047;53.486;10.218;2023-10-31T11:06:09;1.38;;;1.10;;
17844;SDS011;9047;53.486;10.218;2023-10-31T11:08:57;3.78;;;1.30;;
17844;SDS011;9047;53.486;10.218;2023-10-31T11:11:28;1.90;;;1.30;;
17844;SDS011;9047;53.486;10.218;2023-10-31T11:13:57;2.85;;;1.33;;
17844;SDS011;9047;53.486;10.218;2023-10-31T11:16:44;1.63;;;1.27;;
17844;SDS011;9047;53.486;10.218;2023-10-31T11:19:18;1.30;;;1.15;;
17844;SDS011;9047;53.486;10.218;2023-10-31T11:21:53;2.70;;;1.42;;
17844;SDS011;9047;53.486;10.218;2023-10-31T11:24:22;2.47;;;1.27;;
17844;SDS011;9047;53.486;10.218;2023-10-31T11:26:58;2.63;;;1.27;;
17844;SDS011;9047;53.486;10.218;2023-10-31T11:29:43;2.42;;;1.25;;
17844;SDS011;9047;53.486;10.218;2023-10-31T11:32:15;1.80;;;1.27;;
17844;SDS011;9047;53.486;10.218;2023-10-31T11:34:44;3.00;;;1.20;;
17844;SDS011;9047;53.486;10.218;2023-10-31T11:37:18;1.83;;;1.10;;
17844;SDS011;9047;53.486;10.218;2023-10-31T11:42:43;2.88;;;1.58;;
17844;SDS011;9047;53.486;10.218;2023-10-31T11:45:23;2.75;;;1.63;;
17844;SDS011;9047;53.486;10.218;2023-10-31T11:47:58;2.35;;;1.50;;
17844;SDS011;9047;53.486;10.218;2023-10-31T11:50:36;1.80;;;1.48;;
17844;SDS011;9047;53.486;10.218;2023-10-31T11:53:05;3.45;;;1.73;;
17844;SDS011;9047;53.486;10.218;2023-10-31T11:55:40;3.22;;;1.60;;
17844;SDS011;9047;53.486;10.218;2023-10-31T11:58:17;2.33;;;1.80;;
17844;SDS011;9047;53.486;10.218;2023-10-31T12:00:47;2.92;;;2.08;;
17844;SDS011;9047;53.486;10.218;2023-10-31T12:03:25;4.70;;;1.70;;
17844;SDS011;9047;53.486;10.218;2023-10-31T12:05:52;4.50;;;1.50;;
17844;SDS011;9047;53.486;10.218;2023-10-31T12:08:25;1.30;;;1.13;;
17844;SDS011;9047;53.486;10.218;2023-10-31T12:10:53;1.30;;;1.20;;
17844;SDS011;9047;53.486;10.218;2023-10-31T12:13:35;2.25;;;1.30;;
17844;SDS011;9047;53.486;10.218;2023-10-31T12:16:03;2.67;;;1.30;;
17844;SDS011;9047;53.486;10.218;2023-10-31T12:18:37;1.90;;;1.15;;
17844;SDS011;9047;53.486;10.218;2023-10-31T12:21:05;2.15;;;1.45;;
17844;SDS011;9047;53.486;10.218;2023-10-31T12:23:36;2.03;;;1.52;;
17844;SDS011;9047;53.486;10.218;2023-10-31T12:26:10;2.28;;;1.70;;
17844;SDS011;9047;53.486;10.218;2023-10-31T12:28:40;2.17;;;1.50;;
17844;SDS011;9047;53.486;10.218;2023-10-31T12:31:09;1.48;;;1.05;;
17844;SDS011;9047;53.486;10.218;2023-10-31T12:33:44;2.92;;;0.90;;
17844;SDS011;9047;53.486;10.218;2023-10-31T12:36:28;1.30;;;0.82;;
17844;SDS011;9047;53.486;10.218;2023-10-31T12:38:59;3.33;;;1.13;;
17844;SDS011;9047;53.486;10.218;2023-10-31T12:41:35;3.70;;;1.20;;
17844;SDS011;9047;53.486;10.218;2023-10-31T12:44:10;3.47;;;1.40;;
17844;SDS011;9047;53.486;10.218;2023-10-31T12:46:46;1.60;;;1.10;;
17844;SDS011;9047;53.486;10.218;2023-10-31T12:49:20;2.88;;;1.30;;
17844;SDS011;9047;53.486;10.218;2023-10-31T12:51:56;2.17;;;1.00;;
17844;SDS011;9047;53.486;10.218;2023-10-31T12:54:32;3.25;;;1.42;;
17844;SDS011;9047;53.486;10.218;2023-10-31T12:57:06;2.75;;;0.90;;
17844;SDS011;9047;53.486;10.218;2023-10-31T12:59:38;3.05;;;0.95;;
17844;SDS011;9047;53.486;10.218;2023-10-31T13:02:14;2.00;;;0.95;;
17844;SDS011;9047;53.486;10.218;2023-10-31T13:04:49;3.38;;;1.23;;
17844;SDS011;9047;53.486;10.218;2023-10-31T13:07:26;2.10;;;0.93;;
17844;SDS011;9047;53.486;10.218;2023-10-31T13:09:56;3.03;;;1.00;;
17844;SDS011;9047;53.486;10.218;2023-10-31T13:12:29;2.03;;;1.00;;
17844;SDS011;9047;53.486;10.218;2023-10-31T13:15:00;2.55;;;0.85;;
17844;SDS011;9047;53.486;10.218;2023-10-31T13:17:38;3.15;;;1.00;;
17844;SDS011;9047;53.486;10.218;2023-10-31T13:23:02;3.20;;;1.33;;
17844;SDS011;9047;53.486;10.218;2023-10-31T13:25:30;3.85;;;0.98;;
17844;SDS011;9047;53.486;10.218;2023-10-31T13:27:59;2.40;;;1.00;;
17844;SDS011;9047;53.486;10.218;2023-10-31T13:30:30;3.05;;;0.90;;
17844;SDS011;9047;53.486;10.218;2023-10-31T13:32:59;1.80;;;0.90;;
17844;SDS011;9047;53.486;10.218;2023-10-31T13:35:52;2.13;;;0.90;;
17844;SDS011;9047;53.486;10.218;2023-10-31T13:38:21;2.80;;;1.00;;
17844;SDS011;9047;53.486;10.218;2023-10-31T13:40:50;3.10;;;1.20;;
17844;SDS011;9047;53.486;10.218;2023-10-31T13:43:26;3.97;;;1.30;;
17844;SDS011;9047;53.486;10.218;2023-10-31T13:45:56;1.42;;;1.02;;
17844;SDS011;9047;53.486;10.218;2023-10-31T13:48:25;3.22;;;0.95;;
17844;SDS011;9047;53.486;10.218;2023-10-31T13:50:57;2.10;;;1.00;;
17844;SDS011;9047;53.486;10.218;2023-10-31T13:53:25;1.77;;;0.90;;
17844;SDS011;9047;53.486;10.218;2023-10-31T13:55:55;1.35;;;0.77;;
17844;SDS011;9047;53.486;10.218;2023-10-31T13:58:24;2.47;;;0.82;;
17844;SDS011;9047;53.486;10.218;2023-10-31T14:00:52;2.10;;;0.90;;
17844;SDS011;9047;53.486;10.218;2023-10-31T14:03:19;2.22;;;0.73;;
17844;SDS011;9047;53.486;10.218;2023-10-31T14:05:47;1.05;;;0.88;;
17844;SDS011;9047;53.486;10.218;2023-10-31T14:08:20;2.33;;;1.17;;
17844;SDS011;9047;53.486;10.218;2023-10-31T14:10:47;2.17;;;0.95;;
17844;SDS011;9047;53.486;10.218;2023-10-31T14:13:17;3.28;;;2.00;;
17844;SDS011;9047;53.486;10.218;2023-10-31T14:15:54;5.53;;;2.83;;
17844;SDS011;9047;53.486;10.218;2023-10-31T14:18:21;4.22;;;2.80;;
17844;SDS011;9047;53.486;10.218;2023-10-31T14:20:50;4.80;;;2.85;;
17844;SDS011;9047;53.486;10.218;2023-10-31T14:23:21;4.50;;;2.60;;
17844;SDS011;9047;53.486;10.218;2023-10-31T14:25:52;3.30;;;2.08;;
17844;SDS011;9047;53.486;10.218;2023-10-31T14:28:21;3.22;;;1.95;;
17844;SDS011;9047;53.486;10.218;2023-10-31T14:30:50;3.42;;;2.10;;
17844;SDS011;9047;53.486;10.218;2023-10-31T14:33:28;2.97;;;1.85;;
17844;SDS011;9047;53.486;10.218;2023-10-31T14:36:01;3.38;;;1.45;;
17844;SDS011;9047;53.486;10.218;2023-10-31T14:38:33;2.15;;;1.27;;
17844;SDS011;9047;53.486;10.218;2023-10-31T14:41:09;2.55;;;1.13;;
17844;SDS011;9047;53.486;10.218;2023-10-31T14:43:44;1.75;;;0.90;;
17844;SDS011;9047;53.486;10.218;2023-10-31T14:46:15;3.17;;;1.30;;
17844;SDS011;9047;53.486;10.218;2023-10-31T14:48:49;1.73;;;1.23;;
17844;SDS011;9047;53.486;10.218;2023-10-31T14:51:20;1.20;;;1.10;;
17844;SDS011;9047;53.486;10.218;2023-10-31T14:53:53;2.35;;;1.42;;
17844;SDS011;9047;53.486;10.218;2023-10-31T14:56:28;2.72;;;1.45;;
17844;SDS011;9047;53.486;10.218;2023-10-31T14:58:59;2.22;;;1.17;;
17844;SDS011;9047;53.486;10.218;2023-10-31T15:01:31;2.88;;;1.27;;
17844;SDS011;9047;53.486;10.218;2023-10-31T15:03:58;2.63;;;1.20;;
17844;SDS011;9047;53.486;10.218;2023-10-31T15:06:25;2.17;;;1.30;;
17844;SDS011;9047;53.486;10.218;2023-10-31T15:08:54;1.80;;;1.52;;
17844;SDS011;9047;53.486;10.218;2023-10-31T15:11:21;2.42;;;1.20;;
17844;SDS011;9047;53.486;10.218;2023-10-31T15:13:48;1.42;;;1.10;;
17844;SDS011;9047;53.486;10.218;2023-10-31T15:16:17;2.88;;;1.67;;
17844;SDS011;9047;53.486;10.218;2023-10-31T15:18:44;4.82;;;2.20;;